Terminal Aerodrome Forecast
Issued by NWS Charleston, WV

Current Version | Previous Version | Graphics & Text | Print | Product List | Glossary On
Versions: 1 2 3 4 5 6 7 8 9 10 11 12 13 14 15 16 17 18 19 20 21 22 23 24 25 26
925
FTUS41 KRLX 040056 AAB
TAFBKW
TAF AMD
KBKW 040056Z 0401/0424 34008KT P6SM BKN025
      TEMPO 0401/0403 3SM -SHRA BR SCT008 BKN012
     FM040300 34005KT P6SM BKN015
     FM040500 VRB03KT P6SM BKN008
     FM040700 VRB03KT 4SM BR BKN008
     FM041400 26005KT P6SM BKN015
     FM041600 27006KT P6SM BKN025
     FM042200 27006KT 6SM SHRA BR VCTS BKN040CB=

USA.gov is the U.S. government's official web portal to all federal, state and local government web resources and services.